createdAt,value
2018-03-08T00:00:53.112Z,5.68
2018-03-08T00:03:20.897Z,5.86
2018-03-08T00:05:48.348Z,5.85
2018-03-08T00:08:15.801Z,5.94
2018-03-08T00:10:43.591Z,5.93
2018-03-08T00:13:11.041Z,5.96
2018-03-08T00:15:38.549Z,5.79
2018-03-08T00:18:06.267Z,5.81
2018-03-08T00:20:33.732Z,5.91
2018-03-08T00:23:01.185Z,5.91
2018-03-08T00:25:29.625Z,5.76
2018-03-08T00:27:57.077Z,5.87
2018-03-08T00:30:24.535Z,5.91
2018-03-08T00:32:52.569Z,5.81
2018-03-08T00:35:20.029Z,5.78
2018-03-08T00:37:47.553Z,6.01
2018-03-08T00:40:15.565Z,6.06
2018-03-08T00:42:43.031Z,6.19
2018-03-08T00:45:10.492Z,6.14
2018-03-08T00:47:38.116Z,6.17
2018-03-08T00:50:05.573Z,6.09
2018-03-08T00:52:33.021Z,6.04
2018-03-08T00:55:00.929Z,5.97
2018-03-08T00:57:28.385Z,5.77
2018-03-08T00:59:55.838Z,5.76
2018-03-08T01:02:23.468Z,5.78
2018-03-08T01:04:50.917Z,5.79
2018-03-08T01:07:18.365Z,5.90
2018-03-08T01:09:46.310Z,5.95
2018-03-08T01:12:13.760Z,5.87
2018-03-08T01:14:41.214Z,5.77
2018-03-08T01:17:08.998Z,5.85
2018-03-08T01:19:36.447Z,5.82
2018-03-08T01:22:03.897Z,5.86
2018-03-08T01:24:31.594Z,5.81
2018-03-08T01:26:59.078Z,5.78
2018-03-08T01:29:26.529Z,5.85
2018-03-08T01:31:54.416Z,5.88
2018-03-08T01:34:21.864Z,5.85
2018-03-08T01:36:49.322Z,5.89
2018-03-08T01:39:17.752Z,5.88
2018-03-08T01:41:45.205Z,5.80
2018-03-08T01:44:12.652Z,5.70
2018-03-08T01:46:40.669Z,5.74
2018-03-08T01:49:08.128Z,5.85
2018-03-08T01:51:35.580Z,5.88
2018-03-08T01:54:03.665Z,5.81
2018-03-08T01:56:31.119Z,5.86
2018-03-08T01:58:58.565Z,5.83
2018-03-08T02:01:26.658Z,5.82
2018-03-08T02:03:54.110Z,5.84
2018-03-08T02:06:21.557Z,5.88
2018-03-08T02:08:49.648Z,5.94
2018-03-08T02:11:17.101Z,5.87
2018-03-08T02:13:44.554Z,5.82
2018-03-08T02:16:12.285Z,5.81
2018-03-08T02:18:39.741Z,5.76
2018-03-08T02:21:07.202Z,5.73
2018-03-08T02:23:35.022Z,5.62
2018-03-08T02:26:02.472Z,5.63
2018-03-08T02:28:29.930Z,5.65
2018-03-08T02:30:57.721Z,5.64
2018-03-08T02:33:25.182Z,5.55
2018-03-08T02:35:52.649Z,5.63
2018-03-08T02:38:20.404Z,5.71
2018-03-08T02:40:48.535Z,5.79
2018-03-08T02:43:15.998Z,5.89
2018-03-08T02:45:43.704Z,5.92
2018-03-08T02:48:11.163Z,5.65
2018-03-08T02:50:38.609Z,5.64
2018-03-08T02:53:06.396Z,5.54
2018-03-08T02:55:33.856Z,5.56
2018-03-08T02:58:01.331Z,5.49
2018-03-08T03:00:29.062Z,5.47
2018-03-08T03:02:56.519Z,5.48
2018-03-08T03:05:23.973Z,5.46
2018-03-08T03:07:51.758Z,5.47
2018-03-08T03:10:19.205Z,5.42
2018-03-08T03:12:46.677Z,5.43
2018-03-08T03:15:14.442Z,5.36
2018-03-08T03:17:41.976Z,5.35
2018-03-08T03:20:09.429Z,5.28
2018-03-08T03:22:37.137Z,5.34
2018-03-08T03:25:04.584Z,5.31
2018-03-08T03:27:32.029Z,5.32
2018-03-08T03:29:59.824Z,5.41
2018-03-08T03:32:27.285Z,5.32
2018-03-08T03:34:54.751Z,5.30
2018-03-08T03:37:22.510Z,5.23
2018-03-08T03:39:49.961Z,5.25
2018-03-08T03:42:18.410Z,5.23
2018-03-08T03:44:46.440Z,5.15
2018-03-08T03:47:13.893Z,5.09
2018-03-08T03:49:41.357Z,5.21
2018-03-08T03:52:09.114Z,5.25
2018-03-08T03:54:36.568Z,5.31
2018-03-08T03:57:04.029Z,5.23
2018-03-08T03:59:32.047Z,5.32
2018-03-08T04:01:59.529Z,5.40
2018-03-08T04:04:26.973Z,5.42
2018-03-08T04:06:55.101Z,5.37
2018-03-08T04:09:22.545Z,5.38
2018-03-08T04:11:50.002Z,5.38
2018-03-08T04:14:18.091Z,5.39
2018-03-08T04:16:45.538Z,5.41
2018-03-08T04:19:12.988Z,5.39
2018-03-08T04:21:40.782Z,5.45
2018-03-08T04:24:08.250Z,5.33
2018-03-08T04:26:35.701Z,5.39
2018-03-08T04:29:04.079Z,5.37
2018-03-08T04:31:31.528Z,5.68
2018-03-08T04:33:58.977Z,5.51
2018-03-08T04:36:26.762Z,5.35
2018-03-08T04:38:54.211Z,5.14
2018-03-08T04:41:21.677Z,5.15
2018-03-08T04:43:49.778Z,5.19
2018-03-08T04:46:17.232Z,5.16
2018-03-08T04:48:44.676Z,5.17
2018-03-08T04:51:12.442Z,5.26
2018-03-08T04:53:39.888Z,5.23
2018-03-08T04:56:07.351Z,5.18
2018-03-08T04:58:35.139Z,5.17
2018-03-08T05:01:02.593Z,5.30
2018-03-08T05:03:30.030Z,5.19
2018-03-08T05:05:57.814Z,5.16
2018-03-08T05:08:25.263Z,5.08
2018-03-08T05:10:52.834Z,5.17
2018-03-08T05:13:20.658Z,5.08
2018-03-08T05:15:48.116Z,5.00
2018-03-08T05:18:15.571Z,5.07
2018-03-08T05:20:43.286Z,5.08
2018-03-08T05:23:10.727Z,5.31
2018-03-08T05:25:38.181Z,5.23
2018-03-08T05:28:06.198Z,5.20
2018-03-08T05:30:33.645Z,5.15
2018-03-08T05:33:01.094Z,5.18
2018-03-08T05:35:28.873Z,5.21
2018-03-08T05:37:56.317Z,5.27
2018-03-08T05:40:23.778Z,5.31
2018-03-08T05:42:51.557Z,5.38
2018-03-08T05:45:19.399Z,5.37
2018-03-08T05:47:46.846Z,5.36
2018-03-08T05:50:14.556Z,5.41
2018-03-08T05:52:42.001Z,5.31
2018-03-08T05:55:09.453Z,5.16
2018-03-08T05:57:37.248Z,4.98
2018-03-08T06:00:04.709Z,5.05
2018-03-08T06:02:32.435Z,5.13
2018-03-08T06:05:00.252Z,5.00
2018-03-08T06:07:27.706Z,5.14
2018-03-08T06:09:55.154Z,5.12
2018-03-08T06:12:23.235Z,5.17
2018-03-08T06:14:50.689Z,5.15
2018-03-08T06:17:18.146Z,5.23
2018-03-08T06:19:45.914Z,5.27
2018-03-08T06:22:13.364Z,5.43
2018-03-08T06:24:40.817Z,5.38
2018-03-08T06:27:08.580Z,5.39
2018-03-08T06:29:36.047Z,5.67
2018-03-08T06:32:03.494Z,5.76
2018-03-08T06:34:31.345Z,5.91
2018-03-08T06:36:58.806Z,5.99
2018-03-08T06:39:26.260Z,6.07
2018-03-08T06:41:53.974Z,6.06
2018-03-08T06:44:21.426Z,6.23
2018-03-08T06:46:51.436Z,6.42
2018-03-08T06:49:19.131Z,6.29
2018-03-08T06:51:46.578Z,6.59
2018-03-08T06:54:14.027Z,6.39
2018-03-08T06:56:41.848Z,6.46
2018-03-08T06:59:09.298Z,6.42
2018-03-08T07:01:36.750Z,6.46
2018-03-08T07:04:04.369Z,6.60
2018-03-08T07:06:31.819Z,6.72
2018-03-08T07:08:59.264Z,6.65
2018-03-08T07:11:27.194Z,6.86
2018-03-08T07:13:54.644Z,6.95
2018-03-08T07:16:22.089Z,7.13
2018-03-08T07:18:49.874Z,7.25
2018-03-08T07:21:17.316Z,7.36
2018-03-08T07:23:44.774Z,7.39
2018-03-08T07:26:12.885Z,7.31
2018-03-08T07:28:40.375Z,7.49
2018-03-08T07:31:07.787Z,7.67
2018-03-08T07:33:35.537Z,7.93
2018-03-08T07:36:02.987Z,7.73
2018-03-08T07:38:30.434Z,7.76
2018-03-08T07:40:58.232Z,7.77
2018-03-08T07:43:25.677Z,8.18
2018-03-08T07:45:53.120Z,8.21
2018-03-08T07:48:21.544Z,8.08
2018-03-08T07:50:48.990Z,7.98
2018-03-08T07:53:16.435Z,7.92
2018-03-08T07:55:44.229Z,7.84
2018-03-08T07:58:11.682Z,7.87
2018-03-08T08:00:39.126Z,7.94
2018-03-08T08:03:06.936Z,7.66
2018-03-08T08:05:45.939Z,7.76
2018-03-08T08:08:25.182Z,7.65
2018-03-08T08:10:52.629Z,7.85
2018-03-08T08:13:20.071Z,7.56
2018-03-08T08:15:47.870Z,7.77
2018-03-08T08:18:15.319Z,7.82
2018-03-08T08:20:42.770Z,7.73
2018-03-08T08:23:10.558Z,7.73
2018-03-08T08:25:38.013Z,7.43
2018-03-08T08:28:05.465Z,7.56
2018-03-08T08:30:33.246Z,7.75
2018-03-08T08:33:00.685Z,7.77
2018-03-08T08:35:28.133Z,7.77
2018-03-08T08:37:55.861Z,7.69
2018-03-08T08:40:23.306Z,7.80
2018-03-08T08:42:50.761Z,7.84
2018-03-08T08:45:18.503Z,8.04
2018-03-08T08:47:45.956Z,8.17
2018-03-08T08:50:13.922Z,8.14
2018-03-08T08:52:41.622Z,8.21
2018-03-08T08:55:09.070Z,8.26
2018-03-08T08:57:36.597Z,8.49
2018-03-08T09:00:04.909Z,8.52
2018-03-08T09:02:32.350Z,8.44
2018-03-08T09:04:59.795Z,8.89
2018-03-08T09:07:27.913Z,8.87
2018-03-08T09:09:55.352Z,8.87
2018-03-08T09:12:22.807Z,8.64
2018-03-08T09:14:50.586Z,9.03
2018-03-08T09:17:18.030Z,9.42
2018-03-08T09:19:45.474Z,9.47
2018-03-08T09:22:13.177Z,9.47
2018-03-08T09:24:40.642Z,9.46
2018-03-08T09:27:08.098Z,9.50
2018-03-08T09:29:35.965Z,9.52
2018-03-08T09:32:03.406Z,9.50
2018-03-08T09:34:30.853Z,9.84
2018-03-08T09:36:58.657Z,9.70
2018-03-08T09:39:26.103Z,9.73
2018-03-08T09:41:53.556Z,9.89
2018-03-08T09:44:21.342Z,9.69
2018-03-08T09:46:49.025Z,9.67
2018-03-08T09:49:16.469Z,9.92
2018-03-08T09:51:44.649Z,9.79
2018-03-08T09:54:12.113Z,10.24
2018-03-08T09:56:39.579Z,10.82
2018-03-08T09:59:07.429Z,10.68
2018-03-08T10:01:34.849Z,10.15
2018-03-08T10:04:02.312Z,10.09
2018-03-08T10:06:30.329Z,10.08
2018-03-08T10:08:57.769Z,9.77
2018-03-08T10:11:25.209Z,9.62
2018-03-08T10:13:52.945Z,9.97
2018-03-08T10:16:20.403Z,10.15
2018-03-08T10:18:47.883Z,10.16
2018-03-08T10:21:15.701Z,10.11
2018-03-08T10:23:43.132Z,9.99
2018-03-08T10:26:10.584Z,9.98
2018-03-08T10:28:38.705Z,10.07
2018-03-08T10:31:06.167Z,10.20
2018-03-08T10:33:33.619Z,10.45
2018-03-08T10:36:01.388Z,10.30
2018-03-08T10:38:28.849Z,9.88
2018-03-08T10:40:56.298Z,10.05
2018-03-08T10:43:24.083Z,10.25
2018-03-08T10:45:51.544Z,10.19
2018-03-08T10:48:19.004Z,10.21
2018-03-08T10:50:46.629Z,9.91
2018-03-08T10:53:14.892Z,10.12
2018-03-08T10:55:42.353Z,10.08
2018-03-08T11:04:59.573Z,10.34
2018-03-08T11:07:27.023Z,10.30
2018-03-08T11:09:54.477Z,10.45
2018-03-08T11:12:22.256Z,10.67
2018-03-08T11:14:49.701Z,10.68
2018-03-08T11:17:17.161Z,10.96
2018-03-08T11:19:45.250Z,11.10
2018-03-08T11:22:12.698Z,11.61
2018-03-08T11:24:40.141Z,11.76
2018-03-08T11:27:07.921Z,11.64
2018-03-08T11:29:35.476Z,11.42
2018-03-08T11:32:02.932Z,12.14
2018-03-08T11:34:30.946Z,12.28
2018-03-08T11:36:58.404Z,12.80
2018-03-08T11:39:25.860Z,14.28
2018-03-08T11:41:53.928Z,13.33
2018-03-08T11:44:21.376Z,13.22
2018-03-08T11:46:48.825Z,13.38
2018-03-08T11:49:16.617Z,12.51
2018-03-08T11:51:44.075Z,13.22
2018-03-08T11:54:13.751Z,13.65
2018-03-08T11:56:41.448Z,12.98
2018-03-08T11:59:08.891Z,12.71
2018-03-08T12:01:36.337Z,12.36
2018-03-08T12:04:04.091Z,13.63
2018-03-08T12:06:31.547Z,14.66
2018-03-08T12:08:58.992Z,15.00
2018-03-08T12:11:26.628Z,14.47
2018-03-08T12:13:54.082Z,14.63
2018-03-08T12:16:21.526Z,14.71
2018-03-08T12:18:49.505Z,15.11
2018-03-08T12:21:17.020Z,15.22
2018-03-08T12:23:44.494Z,14.66
2018-03-08T12:26:12.202Z,13.80
2018-03-08T12:28:39.650Z,15.26
2018-03-08T12:31:07.114Z,15.96
2018-03-08T12:33:35.179Z,15.16
2018-03-08T12:36:02.638Z,15.82
2018-03-08T12:38:30.093Z,16.36
2018-03-08T12:40:57.883Z,15.80
2018-03-08T12:43:25.340Z,13.06
2018-03-08T12:45:52.789Z,14.81
2018-03-08T12:48:20.567Z,14.75
2018-03-08T12:50:48.027Z,15.10
2018-03-08T12:53:15.509Z,15.00
2018-03-08T12:55:43.570Z,13.79
2018-03-08T12:58:11.033Z,14.58
2018-03-08T13:00:38.481Z,16.16
2018-03-08T13:03:06.253Z,15.01
2018-03-08T13:05:33.728Z,13.58
2018-03-08T13:08:01.183Z,15.22
2018-03-08T13:10:28.937Z,14.76
2018-03-08T13:12:56.399Z,16.40
2018-03-08T13:15:23.846Z,16.33
2018-03-08T13:17:51.631Z,16.59
2018-03-08T13:20:19.081Z,16.78
2018-03-08T13:22:46.549Z,16.25
2018-03-08T13:25:14.305Z,15.76
2018-03-08T13:27:41.762Z,16.78
2018-03-08T13:30:09.237Z,15.55
2018-03-08T13:32:37.309Z,14.39
2018-03-08T13:35:04.753Z,15.22
2018-03-08T13:37:32.208Z,15.84
2018-03-08T13:40:00.295Z,16.95
2018-03-08T13:42:27.749Z,16.62
2018-03-08T13:44:55.217Z,17.07
2018-03-08T13:47:22.986Z,17.89
2018-03-08T13:49:50.433Z,18.75
2018-03-08T13:52:18.019Z,18.39
2018-03-08T13:54:45.978Z,16.37
2018-03-08T13:57:15.660Z,18.10
2018-03-08T13:59:43.104Z,15.84
2018-03-08T14:02:10.874Z,16.65
2018-03-08T14:04:38.305Z,17.16
2018-03-08T14:07:05.753Z,17.73
2018-03-08T14:09:33.513Z,17.30
2018-03-08T14:12:00.967Z,16.31
2018-03-08T14:14:28.473Z,16.74
2018-03-08T14:16:56.199Z,17.91
2018-03-08T14:19:23.656Z,18.27
2018-03-08T14:21:51.115Z,16.60
2018-03-08T14:24:18.739Z,17.80
2018-03-08T14:26:46.192Z,15.42
2018-03-08T14:29:13.646Z,14.66
2018-03-08T14:31:41.565Z,16.07
2018-03-08T14:34:09.013Z,16.62
2018-03-08T14:36:36.470Z,17.29
2018-03-08T14:39:04.245Z,17.99
2018-03-08T14:41:31.690Z,18.00
2018-03-08T14:43:59.133Z,16.19
2018-03-08T14:46:26.949Z,18.14
2018-03-08T14:48:54.396Z,19.80
2018-03-08T14:51:21.836Z,19.30
2018-03-08T14:53:49.620Z,18.39
2018-03-08T14:56:17.077Z,18.62
2018-03-08T14:58:45.232Z,19.38
2018-03-08T15:01:13.234Z,18.69
2018-03-08T15:03:40.676Z,19.35
2018-03-08T15:06:08.128Z,19.66
2018-03-08T15:08:35.918Z,18.88
2018-03-08T15:11:03.371Z,19.13
2018-03-08T15:13:30.840Z,18.87
2018-03-08T15:15:58.607Z,19.38
2018-03-08T15:18:26.070Z,19.22
2018-03-08T15:20:53.522Z,19.42
2018-03-08T15:23:21.654Z,18.84
2018-03-08T15:25:49.109Z,19.45
2018-03-08T15:28:16.574Z,20.13
2018-03-08T15:30:44.734Z,20.51
2018-03-08T15:33:12.181Z,19.87
2018-03-08T15:35:39.633Z,20.02
2018-03-08T15:38:07.607Z,17.17
2018-03-08T15:40:35.065Z,19.32
2018-03-08T15:43:02.531Z,19.84
2018-03-08T15:45:30.242Z,19.00
2018-03-08T15:47:57.697Z,19.25
2018-03-08T15:50:25.162Z,19.34
2018-03-08T15:52:52.969Z,18.98
2018-03-08T15:55:20.421Z,18.55
2018-03-08T15:57:47.957Z,18.07
2018-03-08T16:00:16.271Z,18.22
2018-03-08T16:02:43.717Z,17.97
2018-03-08T16:05:11.166Z,17.06
2018-03-08T16:07:50.640Z,16.43
2018-03-08T16:10:35.921Z,15.35
2018-03-08T16:13:03.685Z,14.62
2018-03-08T16:15:31.156Z,13.23
2018-03-08T16:17:58.631Z,14.80
2018-03-08T16:20:26.357Z,15.29
2018-03-08T16:22:53.813Z,14.97
2018-03-08T16:25:21.264Z,14.70
2018-03-08T16:27:49.046Z,14.09
2018-03-08T16:30:16.520Z,14.15
2018-03-08T16:32:43.970Z,13.67
2018-03-08T16:35:12.046Z,13.08
2018-03-08T16:37:39.512Z,12.80
2018-03-08T16:40:06.983Z,12.73
2018-03-08T16:42:35.044Z,12.32
2018-03-08T16:45:02.509Z,12.01
2018-03-08T16:47:29.970Z,11.74
2018-03-08T16:49:57.732Z,11.43
2018-03-08T16:52:25.763Z,11.31
2018-03-08T16:54:53.436Z,11.19
2018-03-08T16:57:21.409Z,11.12
2018-03-08T16:59:48.842Z,10.90
2018-03-08T17:02:16.628Z,10.50
2018-03-08T17:04:44.349Z,10.20
2018-03-08T17:07:11.807Z,9.98
2018-03-08T17:09:39.261Z,10.18
2018-03-08T17:12:07.024Z,10.85
2018-03-08T17:14:34.541Z,10.47
2018-03-08T17:17:02.004Z,10.15
2018-03-08T17:19:30.018Z,9.83
2018-03-08T17:21:57.512Z,9.79
2018-03-08T17:24:24.961Z,9.96
2018-03-08T17:26:52.693Z,9.85
2018-03-08T17:29:20.142Z,9.52
2018-03-08T17:31:47.596Z,9.05
2018-03-08T17:34:15.302Z,8.96
2018-03-08T17:36:42.750Z,8.99
2018-03-08T17:39:10.209Z,8.94
2018-03-08T17:41:38.052Z,8.73
2018-03-08T17:44:05.506Z,8.65
2018-03-08T17:46:32.949Z,8.62
2018-03-08T17:49:00.625Z,9.02
2018-03-08T17:51:28.066Z,8.93
2018-03-08T17:53:55.509Z,8.56
2018-03-08T17:56:23.456Z,8.47
2018-03-08T17:58:50.904Z,8.25
2018-03-08T18:01:18.351Z,8.22
2018-03-08T18:03:46.457Z,8.35
2018-03-08T18:06:13.946Z,8.41
2018-03-08T18:08:41.393Z,8.37
2018-03-08T18:11:09.136Z,8.23
2018-03-08T18:13:36.603Z,8.08
2018-03-08T18:16:04.052Z,8.06
2018-03-08T18:18:32.133Z,7.90
2018-03-08T18:20:59.587Z,7.77
2018-03-08T18:23:27.035Z,7.58
2018-03-08T18:25:55.125Z,7.44
2018-03-08T18:28:22.569Z,7.30
2018-03-08T18:30:50.017Z,7.19
2018-03-08T18:33:17.807Z,7.34
2018-03-08T18:35:45.267Z,7.22
2018-03-08T18:38:12.718Z,7.10
2018-03-08T18:40:40.486Z,7.06
2018-03-08T18:43:07.934Z,6.96
2018-03-08T18:45:35.372Z,7.01
2018-03-08T18:48:03.210Z,6.90
2018-03-08T18:50:30.662Z,6.91
2018-03-08T18:52:58.110Z,6.80
2018-03-08T18:55:25.778Z,6.87
2018-03-08T18:57:53.233Z,6.71
2018-03-08T19:00:20.681Z,6.69
2018-03-08T19:02:48.565Z,6.65
2018-03-08T19:05:16.678Z,6.63
2018-03-08T19:07:45.410Z,6.57
2018-03-08T19:10:13.136Z,6.55
2018-03-08T19:12:40.580Z,6.48
2018-03-08T19:15:08.017Z,6.42
2018-03-08T19:17:35.765Z,6.33
2018-03-08T19:20:03.213Z,6.24
2018-03-08T19:22:30.662Z,6.33
2018-03-08T19:24:58.761Z,6.27
2018-03-08T19:27:26.205Z,6.19
2018-03-08T19:29:53.650Z,6.25
2018-03-08T19:32:21.459Z,6.25
2018-03-08T19:34:48.918Z,6.05
2018-03-08T19:37:16.380Z,6.00
2018-03-08T19:39:44.133Z,6.06
2018-03-08T19:42:11.573Z,6.09
2018-03-08T19:44:39.051Z,5.92
2018-03-08T19:47:07.136Z,5.89
2018-03-08T19:49:34.581Z,5.92
2018-03-08T19:52:02.038Z,5.86
2018-03-08T19:54:29.867Z,5.84
2018-03-08T19:56:57.316Z,5.67
2018-03-08T19:59:24.765Z,5.73
2018-03-08T20:01:52.508Z,5.72
2018-03-08T20:04:19.954Z,5.63
2018-03-08T20:06:48.101Z,5.69
2018-03-08T20:09:15.853Z,5.61
2018-03-08T20:11:43.293Z,5.62
2018-03-08T20:14:10.747Z,5.81
2018-03-08T20:16:38.780Z,5.72
2018-03-08T20:19:06.246Z,5.64
2018-03-08T20:21:33.751Z,5.99
2018-03-08T20:24:02.461Z,6.36
2018-03-08T20:26:30.186Z,5.78
2018-03-08T20:28:57.663Z,5.69
2018-03-08T20:31:25.401Z,5.68
2018-03-08T20:33:52.913Z,5.63
2018-03-08T20:36:20.608Z,5.56
2018-03-08T20:38:48.325Z,5.65
2018-03-08T20:41:15.768Z,5.48
2018-03-08T20:43:43.222Z,5.39
2018-03-08T20:46:11.410Z,5.38
2018-03-08T20:48:38.885Z,5.45
2018-03-08T20:51:06.341Z,5.34
2018-03-08T20:53:34.094Z,5.28
2018-03-08T20:56:02.215Z,5.20
2018-03-08T20:58:29.682Z,5.20
2018-03-08T21:00:57.402Z,5.11
2018-03-08T21:03:24.857Z,5.25
2018-03-08T21:05:52.352Z,5.30
2018-03-08T21:08:22.285Z,5.23
2018-03-08T21:10:49.750Z,4.90
2018-03-08T21:13:17.224Z,4.69
2018-03-08T21:15:45.297Z,4.66
2018-03-08T21:18:12.749Z,4.79
2018-03-08T21:20:40.189Z,4.76
2018-03-08T21:23:07.867Z,5.18
2018-03-08T21:25:35.485Z,5.09
2018-03-08T21:28:02.927Z,4.94
2018-03-08T21:30:30.891Z,4.85
2018-03-08T21:32:58.341Z,4.61
2018-03-08T21:35:26.464Z,4.59
2018-03-08T21:37:54.592Z,4.77
2018-03-08T21:40:22.083Z,4.78
2018-03-08T21:42:49.538Z,4.74
2018-03-08T21:45:17.185Z,4.79
2018-03-08T21:47:45.352Z,4.62
2018-03-08T21:50:12.797Z,4.31
2018-03-08T21:52:40.797Z,4.04
2018-03-08T21:55:08.289Z,4.32
2018-03-08T21:57:35.741Z,4.42
2018-03-08T22:00:04.114Z,4.37
2018-03-08T22:02:31.918Z,4.25
2018-03-08T22:04:59.393Z,4.30
2018-03-08T22:07:27.102Z,4.31
2018-03-08T22:09:54.889Z,4.31
2018-03-08T22:12:22.926Z,4.18
2018-03-08T22:14:51.374Z,3.97
2018-03-08T22:17:18.860Z,3.93
2018-03-08T22:19:46.321Z,3.93
2018-03-08T22:22:14.199Z,3.77
2018-03-08T22:24:42.307Z,3.87
2018-03-08T22:27:09.779Z,3.87
2018-03-08T22:29:37.925Z,3.81
2018-03-08T22:32:05.371Z,3.74
2018-03-08T22:34:32.869Z,3.83
2018-03-08T22:37:00.619Z,3.48
2018-03-08T22:39:28.248Z,3.23
2018-03-08T22:41:55.860Z,3.49
2018-03-08T22:44:23.619Z,3.66
2018-03-08T22:46:51.082Z,3.82
2018-03-08T22:49:18.533Z,3.88
2018-03-08T22:51:46.612Z,3.74
2018-03-08T22:54:14.087Z,3.32
2018-03-08T22:56:41.537Z,3.33
2018-03-08T22:59:09.603Z,3.53
2018-03-08T23:02:06.810Z,3.28
2018-03-08T23:04:34.617Z,2.97
2018-03-08T23:07:02.079Z,2.62
2018-03-08T23:09:29.532Z,2.74
2018-03-08T23:11:57.357Z,2.79
2018-03-08T23:14:24.818Z,2.67
2018-03-08T23:16:52.277Z,2.69
2018-03-08T23:19:20.005Z,2.69
2018-03-08T23:21:47.457Z,2.68
2018-03-08T23:24:14.914Z,2.55
2018-03-08T23:26:42.682Z,2.51
2018-03-08T23:29:10.134Z,2.73
2018-03-08T23:31:37.589Z,2.63
2018-03-08T23:34:05.385Z,2.58
2018-03-08T23:36:32.842Z,2.51
2018-03-08T23:39:00.302Z,2.44
2018-03-08T23:41:28.063Z,2.26
2018-03-08T23:43:55.532Z,2.43
2018-03-08T23:46:22.991Z,2.01
2018-03-08T23:48:51.052Z,2.01
2018-03-08T23:51:18.509Z,2.14
2018-03-08T23:53:45.962Z,1.89
2018-03-08T23:56:13.788Z,2.24
2018-03-08T23:58:41.248Z,2.10
